Butternut Basin, Massachusetts
Current Conditions -  °F | °C
As of 6:07 AM on Monday 22 Dec 2014 (Local Time) from KPSF Reporting Station
Overcast Overcast  
Wind Chill: 29°   Ceiling: 1100
Heat Index: 29°   Visibility: 7mi
Dew Point: 28°   Wind: 0mph
Humidity: 96%   Direction: NA
Pressure: 30.29"   Gusts: NA
Location:  42.19°N, 73.31°W
Report Text: KPSF 221107Z AUTO 00000KT 7SM BKN011 OVC032 M02/M02 A3029 RMK AO2 T10171022
Loading
Personal Weather Stations






























Interactive Weather Map New forecast layout! Learn more

10-Day Weather Forecast

Advertisements
Track Severe Weather on mobile